createdAt,value
2023-03-15T00:00:50.369Z,96228.44
2023-03-15T00:03:17.366Z,96232.19
2023-03-15T00:05:45.340Z,96243.84
2023-03-15T00:08:12.400Z,96244.97
2023-03-15T00:10:43.093Z,96239.13
2023-03-15T00:13:10.450Z,96237.34
2023-03-15T00:15:37.449Z,96234.53
2023-03-15T00:18:04.426Z,96238.25
2023-03-15T00:20:31.611Z,96243.50
2023-03-15T00:22:58.616Z,96246.53
2023-03-15T00:25:25.808Z,96251.47
2023-03-15T00:27:52.948Z,96246.38
2023-03-15T00:30:19.995Z,96238.28
2023-03-15T00:32:46.972Z,96241.94
2023-03-15T00:35:14.093Z,96243.25
2023-03-15T00:37:41.473Z,96241.16
2023-03-15T00:40:09.218Z,96246.00
2023-03-15T00:42:36.326Z,96264.84
2023-03-15T00:45:03.529Z,96252.25
2023-03-15T00:47:30.516Z,96258.31
2023-03-15T00:49:57.504Z,96264.03
2023-03-15T00:52:24.754Z,96260.28
2023-03-15T00:54:53.378Z,96274.47
2023-03-15T00:57:20.510Z,96275.59
2023-03-15T00:59:47.638Z,96277.84
2023-03-15T01:02:14.700Z,96277.97
2023-03-15T01:04:41.662Z,96290.25
2023-03-15T01:07:08.636Z,96286.13
2023-03-15T01:09:35.568Z,96284.69
2023-03-15T01:12:02.629Z,96292.53
2023-03-15T01:14:31.710Z,96303.72
2023-03-15T01:16:58.898Z,96306.06
2023-03-15T01:19:25.842Z,96298.19
2023-03-15T01:21:53.569Z,96293.34
2023-03-15T01:24:20.635Z,96296.38
2023-03-15T01:26:50.100Z,96297.81
2023-03-15T01:29:18.141Z,96297.97
2023-03-15T01:31:45.404Z,96307.28
2023-03-15T01:34:12.562Z,96302.69
2023-03-15T01:36:39.529Z,96305.34
2023-03-15T01:39:06.671Z,96300.81
2023-03-15T01:41:41.128Z,96298.03
2023-03-15T01:44:15.437Z,96316.88
2023-03-15T01:46:43.851Z,96322.94
2023-03-15T01:49:32.747Z,96322.53
2023-03-15T01:52:06.490Z,96334.72
2023-03-15T01:54:42.540Z,96339.25
2023-03-15T01:57:25.385Z,96345.94
2023-03-15T02:00:16.702Z,96345.44
2023-03-15T02:03:04.189Z,96337.31
2023-03-15T02:05:35.716Z,96322.94
2023-03-15T02:08:06.027Z,96337.06
2023-03-15T02:10:40.843Z,96338.91
2023-03-15T02:13:08.305Z,96348.44
2023-03-15T02:15:35.531Z,96355.38
2023-03-15T02:18:05.477Z,96360.50
2023-03-15T02:20:38.328Z,96373.19
2023-03-15T02:23:12.220Z,96388.84
2023-03-15T02:26:16.726Z,96388.50
2023-03-15T02:28:43.772Z,96392.19
2023-03-15T02:31:12.439Z,96394.44
2023-03-15T02:33:42.007Z,96407.91
2023-03-15T02:36:11.663Z,96408.03
2023-03-15T02:38:38.706Z,96421.44
2023-03-15T02:41:05.850Z,96427.72
2023-03-15T02:43:34.342Z,96430.94
2023-03-15T02:46:02.088Z,96438.88
2023-03-15T02:48:31.462Z,96453.38
2023-03-15T02:50:58.731Z,96464.50
2023-03-15T02:53:26.208Z,96482.13
2023-03-15T02:55:53.425Z,96487.81
2023-03-15T02:58:20.486Z,96491.63
2023-03-15T03:00:48.864Z,96505.72
2023-03-15T03:03:18.702Z,96508.22
2023-03-15T03:05:45.732Z,96512.66
2023-03-15T03:08:16.429Z,96515.28
2023-03-15T03:10:43.902Z,96518.47
2023-03-15T03:13:10.893Z,96524.66
2023-03-15T03:15:39.605Z,96536.97
2023-03-15T03:18:06.655Z,96541.22
2023-03-15T03:20:33.786Z,96551.97
2023-03-15T03:23:05.926Z,96559.13
2023-03-15T03:25:33.778Z,96570.69
2023-03-15T03:28:04.066Z,96576.50
2023-03-15T03:30:31.678Z,96575.53
2023-03-15T03:32:58.879Z,96574.16
2023-03-15T03:35:26.069Z,96586.38
2023-03-15T03:37:53.919Z,96588.84
2023-03-15T03:40:27.050Z,96599.78
2023-03-15T03:42:54.228Z,96606.09
2023-03-15T03:45:21.347Z,96605.94
2023-03-15T03:47:52.205Z,96620.38
2023-03-15T03:50:19.191Z,96624.84
2023-03-15T03:52:46.186Z,96632.56
2023-03-15T03:55:25.334Z,96636.22
2023-03-15T03:57:53.818Z,96651.56
2023-03-15T04:00:36.851Z,96651.31
2023-03-15T04:03:04.972Z,96661.91
2023-03-15T04:05:34.854Z,96663.81
2023-03-15T04:08:01.947Z,96665.06
2023-03-15T04:10:35.189Z,96678.63
2023-03-15T04:13:03.237Z,96680.94
2023-03-15T04:15:31.561Z,96698.88
2023-03-15T04:17:59.582Z,96694.97
2023-03-15T04:20:35.500Z,96702.16
2023-03-15T04:23:03.323Z,96707.28
2023-03-15T04:26:08.770Z,96707.88
2023-03-15T04:28:57.092Z,96712.00
2023-03-15T04:31:47.025Z,96717.00
2023-03-15T04:34:30.311Z,96733.47
2023-03-15T04:36:57.379Z,96733.09
2023-03-15T04:39:47.213Z,96733.84
2023-03-15T04:42:30.641Z,96746.53
2023-03-15T04:45:20.689Z,96748.53
2023-03-15T04:48:13.859Z,96762.38
2023-03-15T04:50:58.095Z,96759.28
2023-03-15T04:53:54.117Z,96771.78
2023-03-15T04:56:39.482Z,96779.81
2023-03-15T04:59:18.046Z,96789.31
2023-03-15T05:02:04.130Z,96790.88
2023-03-15T05:04:37.150Z,96801.88
2023-03-15T05:07:30.481Z,96803.66
2023-03-15T05:10:17.521Z,96809.22
2023-03-15T05:13:19.145Z,96810.53
2023-03-15T05:15:57.831Z,96816.00
2023-03-15T05:18:57.663Z,96832.63
2023-03-15T05:21:35.107Z,96841.41
2023-03-15T05:24:22.423Z,96837.47
2023-03-15T05:27:09.747Z,96837.84
2023-03-15T05:29:57.113Z,96845.03
2023-03-15T05:32:26.869Z,96850.84
2023-03-15T05:35:14.048Z,96860.44
2023-03-15T05:37:46.819Z,96862.88
2023-03-15T05:40:49.197Z,96876.88
2023-03-15T05:43:34.515Z,96870.69
2023-03-15T05:46:24.784Z,96877.16
2023-03-15T05:49:00.193Z,96891.00
2023-03-15T05:51:35.387Z,96891.81
2023-03-15T05:54:17.380Z,96895.84
2023-03-15T05:57:13.630Z,96898.66
2023-03-15T06:00:10.898Z,96908.28
2023-03-15T06:02:41.608Z,96906.16
2023-03-15T06:05:28.974Z,96914.88
2023-03-15T06:07:57.053Z,96915.66
2023-03-15T06:10:25.709Z,96915.28
2023-03-15T06:12:55.531Z,96927.38
2023-03-15T06:15:23.657Z,96922.03
2023-03-15T06:17:52.238Z,96927.38
2023-03-15T06:20:19.397Z,96923.72
2023-03-15T06:22:46.335Z,96937.16
2023-03-15T06:25:32.304Z,96942.53
2023-03-15T06:27:59.578Z,96947.53
2023-03-15T06:30:27.052Z,96947.91
2023-03-15T06:32:57.689Z,96954.28
2023-03-15T06:35:24.905Z,96947.13
2023-03-15T06:37:53.108Z,96962.63
2023-03-15T06:40:20.172Z,96966.50
2023-03-15T06:42:48.224Z,96966.38
2023-03-15T06:45:17.839Z,96960.47
2023-03-15T06:47:46.022Z,96957.84
2023-03-15T06:50:13.765Z,96965.31
2023-03-15T06:52:40.964Z,96973.97
2023-03-15T06:55:08.530Z,96975.25
2023-03-15T06:57:36.086Z,96974.19
2023-03-15T07:00:03.420Z,96978.56
2023-03-15T07:02:37.072Z,96978.75
2023-03-15T07:05:04.804Z,96986.56
2023-03-15T07:07:31.752Z,96983.75
2023-03-15T07:09:58.727Z,96989.09
2023-03-15T07:12:25.762Z,96991.34
2023-03-15T07:14:52.696Z,96989.25
2023-03-15T07:17:19.776Z,96988.22
2023-03-15T07:19:55.817Z,96993.44
2023-03-15T07:22:24.053Z,96997.38
2023-03-15T07:24:51.528Z,96999.13
2023-03-15T07:27:19.571Z,96997.47
2023-03-15T07:29:46.677Z,96998.09
2023-03-15T07:32:13.753Z,97001.59
2023-03-15T07:34:40.876Z,97001.63
2023-03-15T07:37:08.111Z,97007.13
2023-03-15T07:39:35.381Z,97006.66
2023-03-15T07:42:02.546Z,97011.59
2023-03-15T07:44:39.019Z,97009.06
2023-03-15T07:47:06.199Z,97006.91
2023-03-15T07:49:34.687Z,97003.91
2023-03-15T07:52:01.829Z,96999.50
2023-03-15T07:54:31.710Z,97008.97
2023-03-15T07:56:58.756Z,97013.78
2023-03-15T07:59:25.828Z,97018.94
2023-03-15T08:01:53.009Z,97018.41
2023-03-15T08:04:20.160Z,97010.84
2023-03-15T08:06:47.135Z,97020.38
2023-03-15T08:09:14.140Z,97024.88
2023-03-15T08:11:42.148Z,97025.38
2023-03-15T08:14:10.710Z,97026.81
2023-03-15T08:16:37.827Z,97022.34
2023-03-15T08:19:04.832Z,97026.41
2023-03-15T08:21:33.884Z,97025.28
2023-03-15T08:24:01.229Z,97018.50
2023-03-15T08:26:28.235Z,97021.72
2023-03-15T08:28:55.321Z,97014.44
2023-03-15T08:31:23.393Z,97023.66
2023-03-15T08:33:50.516Z,97019.63
2023-03-15T08:36:17.631Z,97018.03
2023-03-15T08:38:44.660Z,97020.63
2023-03-15T08:41:11.726Z,97018.09
2023-03-15T08:43:38.696Z,97022.78
2023-03-15T08:46:05.814Z,97019.81
2023-03-15T08:48:32.850Z,97028.72
2023-03-15T08:51:04.349Z,97020.88
2023-03-15T08:53:31.524Z,97027.50
2023-03-15T08:55:58.681Z,97024.00
2023-03-15T08:58:25.878Z,97021.31
2023-03-15T09:00:53.334Z,97015.22
2023-03-15T09:03:20.636Z,97025.44
2023-03-15T09:05:47.729Z,97019.41
2023-03-15T09:08:17.019Z,97023.97
2023-03-15T09:10:44.493Z,97028.44
2023-03-15T09:13:12.348Z,97021.31
2023-03-15T09:15:39.389Z,97020.84
2023-03-15T09:18:06.493Z,97027.31
2023-03-15T09:20:33.536Z,97026.78
2023-03-15T09:23:00.889Z,97025.81
2023-03-15T09:25:27.907Z,97030.28
2023-03-15T09:27:55.726Z,97035.34
2023-03-15T09:30:22.768Z,97043.84
2023-03-15T09:32:49.944Z,97045.56
2023-03-15T09:35:18.884Z,97045.91
2023-03-15T09:37:46.328Z,97049.91
2023-03-15T09:40:19.397Z,97052.81
2023-03-15T09:43:06.320Z,97056.69
2023-03-15T09:45:57.837Z,97061.75
2023-03-15T09:48:55.481Z,97059.03
2023-03-15T09:51:48.079Z,97054.44
2023-03-15T09:54:20.588Z,97063.13
2023-03-15T09:57:02.462Z,97058.09
2023-03-15T09:59:39.014Z,97056.69
2023-03-15T10:02:32.540Z,97056.00
2023-03-15T10:05:19.138Z,97056.91
2023-03-15T10:07:46.285Z,97067.16
2023-03-15T10:10:21.163Z,97065.03
2023-03-15T10:12:52.553Z,97061.44
2023-03-15T10:16:05.977Z,97068.97
2023-03-15T10:18:44.261Z,97060.91
2023-03-15T10:21:13.647Z,97053.78
2023-03-15T10:23:55.973Z,97060.81
2023-03-15T10:26:32.912Z,97058.78
2023-03-15T10:29:01.209Z,97052.22
2023-03-15T10:31:41.394Z,97044.81
2023-03-15T10:34:14.058Z,97044.31
2023-03-15T10:36:54.382Z,97057.09
2023-03-15T10:39:22.356Z,97055.28
2023-03-15T10:41:50.271Z,97054.44
2023-03-15T10:44:24.682Z,97055.00
2023-03-15T10:47:21.388Z,97056.47
2023-03-15T10:49:50.930Z,97052.66
2023-03-15T10:52:44.669Z,97043.03
2023-03-15T10:55:16.606Z,97035.09
2023-03-15T10:57:55.120Z,97027.84
2023-03-15T11:00:31.234Z,97030.75
2023-03-15T11:03:16.124Z,97039.53
2023-03-15T11:05:47.822Z,97024.56
2023-03-15T11:08:22.704Z,97028.19
2023-03-15T11:10:59.822Z,97032.84
2023-03-15T11:13:28.257Z,97028.50
2023-03-15T11:15:56.868Z,97026.47
2023-03-15T11:18:38.148Z,97023.59
2023-03-15T11:21:07.288Z,97027.38
2023-03-15T11:23:39.059Z,97030.28
2023-03-15T11:26:08.610Z,97022.56
2023-03-15T11:28:36.711Z,97021.50
2023-03-15T11:31:04.752Z,97020.34
2023-03-15T11:33:58.607Z,97011.59
2023-03-15T11:36:27.874Z,97018.44
2023-03-15T11:38:55.108Z,97011.63
2023-03-15T11:41:21.992Z,97016.47
2023-03-15T11:43:52.224Z,97005.84
2023-03-15T11:46:41.046Z,97006.78
2023-03-15T11:49:45.769Z,97010.91
2023-03-15T11:52:12.969Z,96991.13
2023-03-15T11:54:40.181Z,96998.84
2023-03-15T11:57:27.796Z,97009.56
2023-03-15T11:59:57.970Z,96996.78
2023-03-15T12:02:26.453Z,96999.34
2023-03-15T12:04:54.584Z,96989.34
2023-03-15T12:07:24.599Z,96986.31
2023-03-15T12:09:52.541Z,96987.97
2023-03-15T12:12:25.639Z,96987.81
2023-03-15T12:15:06.238Z,96976.16
2023-03-15T12:17:43.104Z,96972.06
2023-03-15T12:20:18.004Z,96957.50
2023-03-15T12:22:51.902Z,96962.00
2023-03-15T12:25:31.166Z,96955.88
2023-03-15T12:27:58.663Z,96957.00
2023-03-15T12:30:33.673Z,96969.34
2023-03-15T12:33:01.839Z,96955.97
2023-03-15T12:35:32.650Z,96955.91
2023-03-15T12:38:01.521Z,96963.91
2023-03-15T12:40:28.455Z,96954.44
2023-03-15T12:42:57.528Z,96954.03
2023-03-15T12:45:27.618Z,96956.53
2023-03-15T12:47:54.488Z,96952.34
2023-03-15T12:50:43.837Z,96947.53
2023-03-15T12:53:22.891Z,96945.84
2023-03-15T12:55:56.527Z,96955.88
2023-03-15T12:58:28.712Z,96946.56
2023-03-15T13:00:56.018Z,96946.72
2023-03-15T13:03:24.160Z,96955.41
2023-03-15T13:06:12.818Z,96955.09
2023-03-15T13:09:08.950Z,96951.97
2023-03-15T13:11:59.261Z,96954.97
2023-03-15T13:14:51.042Z,96953.25
2023-03-15T13:17:33.566Z,96955.06
2023-03-15T13:20:20.458Z,96948.78
2023-03-15T13:22:55.439Z,96947.88
2023-03-15T13:25:46.731Z,96960.84
2023-03-15T13:28:23.873Z,96955.63
2023-03-15T13:30:55.621Z,96956.03
2023-03-15T13:33:30.057Z,96947.94
2023-03-15T13:36:11.561Z,96955.22
2023-03-15T13:38:43.625Z,96950.56
2023-03-15T13:41:25.062Z,96955.25
2023-03-15T13:43:54.003Z,96959.72
2023-03-15T13:46:23.394Z,96965.72
2023-03-15T13:48:51.262Z,96966.91
2023-03-15T13:51:22.947Z,96969.53
2023-03-15T13:53:52.700Z,96973.22
2023-03-15T13:56:37.373Z,96984.66
2023-03-15T13:59:12.448Z,96981.41
2023-03-15T14:01:40.061Z,96991.00
2023-03-15T14:04:17.521Z,97001.75
2023-03-15T14:06:47.314Z,96996.75
2023-03-15T14:09:24.478Z,96998.44
2023-03-15T14:12:07.730Z,96998.28
2023-03-15T14:14:38.291Z,97009.16
2023-03-15T14:17:18.737Z,97003.56
2023-03-15T14:19:54.548Z,97007.97
2023-03-15T14:22:21.489Z,97008.03
2023-03-15T14:24:50.288Z,97028.63
2023-03-15T14:27:19.536Z,97014.06
2023-03-15T14:29:54.616Z,97030.03
2023-03-15T14:32:24.682Z,97023.50
2023-03-15T14:34:56.801Z,97025.69
2023-03-15T14:37:44.364Z,97038.75
2023-03-15T14:40:28.555Z,97034.44
2023-03-15T14:42:55.499Z,97031.41
2023-03-15T14:45:22.469Z,97028.09
2023-03-15T14:47:59.087Z,97031.44
2023-03-15T14:50:28.770Z,97029.38
2023-03-15T14:52:58.261Z,97041.66
2023-03-15T14:55:29.410Z,97040.72
2023-03-15T14:57:56.949Z,97034.88
2023-03-15T15:00:24.889Z,97038.16
2023-03-15T15:02:52.791Z,97028.78
2023-03-15T15:05:34.053Z,97031.44
2023-03-15T15:08:06.331Z,97035.91
2023-03-15T15:10:34.822Z,97031.88
2023-03-15T15:13:06.748Z,97032.97
2023-03-15T15:15:43.996Z,97028.34
2023-03-15T15:18:18.613Z,97026.41
2023-03-15T15:20:46.407Z,97031.16
2023-03-15T15:23:32.177Z,97029.94
2023-03-15T15:26:01.661Z,97038.28
2023-03-15T15:28:36.076Z,97039.78
2023-03-15T15:31:08.572Z,97045.00
2023-03-15T15:33:35.884Z,97042.22
2023-03-15T15:36:03.723Z,97044.34
2023-03-15T15:38:39.730Z,97058.53
2023-03-15T15:41:15.126Z,97058.06
2023-03-15T15:43:43.278Z,97060.16
2023-03-15T15:46:12.470Z,97065.81
2023-03-15T15:48:40.816Z,97059.78
2023-03-15T15:51:23.214Z,97069.94
2023-03-15T15:53:50.978Z,97071.31
2023-03-15T15:56:18.449Z,97075.56
2023-03-15T15:58:45.453Z,97069.63
2023-03-15T16:01:14.114Z,97059.22
2023-03-15T16:03:41.923Z,97070.59
2023-03-15T16:06:19.196Z,97071.25
2023-03-15T16:08:46.895Z,97070.28
2023-03-15T16:11:15.209Z,97075.81
2023-03-15T16:13:43.169Z,97069.53
2023-03-15T16:16:15.733Z,97073.41
2023-03-15T16:18:42.989Z,97069.25
2023-03-15T16:21:24.590Z,97074.47
2023-03-15T16:23:58.613Z,97073.50
2023-03-15T16:26:26.193Z,97082.78
2023-03-15T16:28:53.299Z,97088.47
2023-03-15T16:31:22.067Z,97092.47
2023-03-15T16:33:49.833Z,97088.47
2023-03-15T16:36:20.987Z,97095.63
2023-03-15T16:38:48.037Z,97092.94
2023-03-15T16:41:15.821Z,97089.31
2023-03-15T16:43:43.019Z,97095.84
2023-03-15T16:46:12.593Z,97091.84
2023-03-15T16:48:39.606Z,97109.78
2023-03-15T16:51:06.651Z,97104.34
2023-03-15T16:53:35.574Z,97109.59
2023-03-15T16:56:03.985Z,97122.44
2023-03-15T16:58:31.425Z,97121.28
2023-03-15T17:00:58.403Z,97136.72
2023-03-15T17:03:27.430Z,97125.38
2023-03-15T17:05:54.838Z,97139.84
2023-03-15T17:08:22.078Z,97143.25
2023-03-15T17:10:49.478Z,97141.91
2023-03-15T17:13:17.465Z,97145.94
2023-03-15T17:15:45.342Z,97154.34
2023-03-15T17:18:19.471Z,97150.50
2023-03-15T17:20:47.525Z,97154.03
2023-03-15T17:23:14.675Z,97166.06
2023-03-15T17:25:42.715Z,97169.88
2023-03-15T17:28:09.797Z,97173.59
2023-03-15T17:30:37.374Z,97171.22
2023-03-15T17:33:04.740Z,97178.94
2023-03-15T17:35:38.912Z,97180.91
2023-03-15T17:38:06.981Z,97177.22
2023-03-15T17:40:35.108Z,97185.78
2023-03-15T17:43:02.782Z,97184.63
2023-03-15T17:45:31.535Z,97190.28
2023-03-15T17:47:58.712Z,97180.91
2023-03-15T17:50:29.885Z,97186.06
2023-03-15T17:52:57.460Z,97185.72
2023-03-15T17:55:25.912Z,97184.16
2023-03-15T17:57:55.503Z,97193.13
2023-03-15T18:00:23.778Z,97188.59
2023-03-15T18:02:55.736Z,97191.50
2023-03-15T18:05:25.198Z,97191.97
2023-03-15T18:07:58.717Z,97203.41
2023-03-15T18:10:28.691Z,97202.28
2023-03-15T18:12:55.775Z,97202.91
2023-03-15T18:15:23.835Z,97215.41
2023-03-15T18:17:50.956Z,97216.53
2023-03-15T18:20:18.607Z,97215.41
2023-03-15T18:22:45.601Z,97213.44
2023-03-15T18:25:23.486Z,97222.19
2023-03-15T18:27:50.538Z,97219.72
2023-03-15T18:30:19.037Z,97227.25
2023-03-15T18:32:46.125Z,97224.47
2023-03-15T18:35:18.152Z,97219.34
2023-03-15T18:37:45.423Z,97230.72
2023-03-15T18:40:13.872Z,97232.09
2023-03-15T18:42:41.605Z,97232.66
2023-03-15T18:45:22.447Z,97243.91
2023-03-15T18:47:49.594Z,97243.53
2023-03-15T18:50:17.184Z,97237.63
2023-03-15T18:52:44.557Z,97238.69
2023-03-15T18:55:12.346Z,97242.38
2023-03-15T18:57:41.664Z,97237.94
2023-03-15T19:00:13.417Z,97243.31
2023-03-15T19:02:45.080Z,97245.81
2023-03-15T19:05:12.894Z,97252.25
2023-03-15T19:07:40.270Z,97252.63
2023-03-15T19:10:08.914Z,97251.44
2023-03-15T19:12:36.926Z,97249.50
2023-03-15T19:15:05.802Z,97263.91
2023-03-15T19:17:33.546Z,97262.44
2023-03-15T19:20:01.137Z,97259.38
2023-03-15T19:22:31.088Z,97264.66
2023-03-15T19:24:58.275Z,97269.63
2023-03-15T19:27:25.660Z,97269.84
2023-03-15T19:29:52.674Z,97272.06
2023-03-15T19:32:20.957Z,97273.59
2023-03-15T19:34:48.190Z,97277.91
2023-03-15T19:37:15.404Z,97275.19
2023-03-15T19:39:42.520Z,97273.25
2023-03-15T19:42:09.612Z,97272.25
2023-03-15T19:44:36.794Z,97271.06
2023-03-15T19:47:04.092Z,97280.88
2023-03-15T19:49:31.188Z,97278.63
2023-03-15T19:51:59.274Z,97275.59
2023-03-15T19:54:26.396Z,97278.16
2023-03-15T19:56:54.605Z,97284.78
2023-03-15T19:59:21.719Z,97284.03
2023-03-15T20:01:49.187Z,97290.94
2023-03-15T20:04:16.469Z,97296.47
2023-03-15T20:06:43.609Z,97294.06
2023-03-15T20:09:12.014Z,97294.41
2023-03-15T20:11:39.126Z,97283.13
2023-03-15T20:14:06.399Z,97288.19
2023-03-15T20:16:33.513Z,97291.19
2023-03-15T20:19:01.109Z,97299.03
2023-03-15T20:21:29.488Z,97304.09
2023-03-15T20:23:56.780Z,97307.31
2023-03-15T20:26:25.276Z,97311.22
2023-03-15T20:28:52.627Z,97320.31
2023-03-15T20:31:19.881Z,97321.13
2023-03-15T20:33:48.607Z,97325.81
2023-03-15T20:36:16.383Z,97327.44
2023-03-15T20:38:44.229Z,97333.19
2023-03-15T20:41:13.961Z,97332.72
2023-03-15T20:43:41.551Z,97333.59
2023-03-15T20:46:10.036Z,97336.00
2023-03-15T20:48:37.176Z,97333.75
2023-03-15T20:51:04.626Z,97348.09
2023-03-15T20:53:32.899Z,97347.94
2023-03-15T20:56:00.879Z,97351.81
2023-03-15T20:58:28.036Z,97349.09
2023-03-15T21:01:03.396Z,97345.94
2023-03-15T21:03:33.246Z,97351.13
2023-03-15T21:06:01.135Z,97344.34
2023-03-15T21:08:28.488Z,97351.50
2023-03-15T21:10:55.760Z,97344.25
2023-03-15T21:13:22.950Z,97347.00
2023-03-15T21:15:52.087Z,97346.53
2023-03-15T21:18:21.854Z,97346.81
2023-03-15T21:21:02.509Z,97348.25
2023-03-15T21:23:33.042Z,97347.00
2023-03-15T21:26:02.166Z,97346.19
2023-03-15T21:28:29.498Z,97346.44
2023-03-15T21:30:56.686Z,97351.56
2023-03-15T21:33:25.131Z,97354.63
2023-03-15T21:35:52.577Z,97349.78
2023-03-15T21:38:20.083Z,97359.97
2023-03-15T21:40:47.834Z,97354.94
2023-03-15T21:43:15.013Z,97365.84
2023-03-15T21:45:42.626Z,97362.59
2023-03-15T21:48:09.718Z,97356.69
2023-03-15T21:50:36.746Z,97360.91
2023-03-15T21:53:03.980Z,97371.56
2023-03-15T21:55:33.606Z,97357.41
2023-03-15T21:58:07.399Z,97362.44
2023-03-15T22:00:34.830Z,97353.28
2023-03-15T22:03:01.821Z,97353.78
2023-03-15T22:05:28.895Z,97359.50
2023-03-15T22:07:55.921Z,97354.88
2023-03-15T22:10:23.380Z,97353.47
2023-03-15T22:12:54.017Z,97358.84
2023-03-15T22:15:22.117Z,97350.09
2023-03-15T22:17:49.102Z,97354.28
2023-03-15T22:20:16.932Z,97360.72
2023-03-15T22:22:45.050Z,97354.75
2023-03-15T22:25:12.820Z,97358.97
2023-03-15T22:27:40.347Z,97349.41
2023-03-15T22:30:08.665Z,97358.25
2023-03-15T22:32:35.670Z,97358.69
2023-03-15T22:35:02.734Z,97364.72
2023-03-15T22:37:29.745Z,97365.75
2023-03-15T22:39:56.869Z,97373.44
2023-03-15T22:42:23.896Z,97365.66
2023-03-15T22:44:51.007Z,97367.97
2023-03-15T22:47:18.093Z,97371.34
2023-03-15T22:49:45.041Z,97377.63
2023-03-15T22:52:12.178Z,97374.78
2023-03-15T22:54:42.816Z,97375.53
2023-03-15T22:57:11.453Z,97374.72
2023-03-15T22:59:38.963Z,97375.00
2023-03-15T23:02:07.187Z,97383.22
2023-03-15T23:04:34.361Z,97386.09
2023-03-15T23:07:01.805Z,97378.09
2023-03-15T23:09:28.861Z,97378.97
2023-03-15T23:11:55.856Z,97382.78
2023-03-15T23:14:22.837Z,97381.91
2023-03-15T23:16:49.849Z,97382.41
2023-03-15T23:19:16.989Z,97390.28
2023-03-15T23:21:44.032Z,97392.25
2023-03-15T23:24:13.890Z,97391.13
2023-03-15T23:26:40.967Z,97386.28
2023-03-15T23:29:10.807Z,97391.28
2023-03-15T23:31:38.599Z,97389.81
2023-03-15T23:34:06.102Z,97393.00
2023-03-15T23:36:33.717Z,97393.91
2023-03-15T23:39:00.699Z,97384.75
2023-03-15T23:41:27.753Z,97388.75
2023-03-15T23:43:54.692Z,97391.75
2023-03-15T23:46:23.680Z,97395.63
2023-03-15T23:48:52.436Z,97390.41
2023-03-15T23:51:19.908Z,97398.00
2023-03-15T23:53:46.891Z,97390.94
2023-03-15T23:56:13.854Z,97393.44
2023-03-15T23:58:40.936Z,97393.50
